createdAt,value
2016-09-10T00:00:41.387Z,12.86
2016-09-10T00:01:41.317Z,12.86
2016-09-10T00:02:41.005Z,12.86
2016-09-10T00:03:41.358Z,12.86
2016-09-10T00:04:41.358Z,12.88
2016-09-10T00:05:41.386Z,12.87
2016-09-10T00:06:41.402Z,12.91
2016-09-10T00:07:41.446Z,12.91
2016-09-10T00:08:41.134Z,12.86
2016-09-10T00:09:41.164Z,12.8
2016-09-10T00:10:40.882Z,12.94
2016-09-10T00:11:41.241Z,12.93
2016-09-10T00:12:40.928Z,13.02
2016-09-10T00:13:41.257Z,12.84
2016-09-10T00:14:41.009Z,12.84
2016-09-10T00:15:40.992Z,13.01
2016-09-10T00:16:41.080Z,12.88
2016-09-10T00:17:41.028Z,12.98
2016-09-10T00:18:41.410Z,13.01
2016-09-10T00:19:41.080Z,12.86
2016-09-10T00:20:41.767Z,12.86
2016-09-10T00:21:41.125Z,12.73
2016-09-10T00:22:41.452Z,12.78
2016-09-10T00:23:41.474Z,12.66
2016-09-10T00:24:41.478Z,12.58
2016-09-10T00:25:41.275Z,12.69
2016-09-10T00:26:41.527Z,12.63
2016-09-10T00:27:41.688Z,12.63
2016-09-10T00:28:41.274Z,12.55
2016-09-10T00:29:41.366Z,12.62
2016-09-10T00:30:41.301Z,12.72
2016-09-10T00:31:41.334Z,12.7
2016-09-10T00:32:41.393Z,12.7
2016-09-10T00:33:41.673Z,12.73
2016-09-10T00:34:41.445Z,12.81
2016-09-10T00:35:41.447Z,12.84
2016-09-10T00:36:41.780Z,12.91
2016-09-10T00:37:41.457Z,12.91
2016-09-10T00:38:41.455Z,12.91
2016-09-10T00:39:41.819Z,12.93
2016-09-10T00:40:41.505Z,12.93
2016-09-10T00:41:41.525Z,13.01
2016-09-10T00:42:41.856Z,12.95
2016-09-10T00:43:41.788Z,12.91
2016-09-10T00:44:41.783Z,12.95
2016-09-10T00:45:41.628Z,12.91
2016-09-10T00:46:41.942Z,12.88
2016-09-10T00:47:41.647Z,12.94
2016-09-10T00:48:41.657Z,12.88
2016-09-10T00:49:42.070Z,12.8
2016-09-10T00:50:41.711Z,12.87
2016-09-10T00:51:41.746Z,12.94
2016-09-10T00:52:41.794Z,13.02
2016-09-10T00:53:41.847Z,12.88
2016-09-10T00:54:42.108Z,12.91
2016-09-10T00:55:42.190Z,13.05
2016-09-10T00:56:42.200Z,13.02
2016-09-10T00:57:41.882Z,13.03
2016-09-10T00:58:42.513Z,13.11
2016-09-10T00:59:41.929Z,13.09
2016-09-10T01:00:42.318Z,13.17
2016-09-10T01:01:42.261Z,13.21
2016-09-10T01:02:42.287Z,13.16
2016-09-10T01:03:42.308Z,13.19
2016-09-10T01:04:42.121Z,13.01
2016-09-10T01:05:42.029Z,13.23
2016-09-10T01:06:42.058Z,13.17
2016-09-10T01:07:42.067Z,13.09
2016-09-10T01:08:42.490Z,13.11
2016-09-10T01:09:42.113Z,13.06
2016-09-10T01:10:42.438Z,13.2
2016-09-10T01:11:42.500Z,13.09
2016-09-10T01:12:42.193Z,13.11
2016-09-10T01:13:42.660Z,13.13
2016-09-10T01:14:42.966Z,13.09
2016-09-10T01:15:42.240Z,13.02
2016-09-10T01:16:42.609Z,13.01
2016-09-10T01:17:42.318Z,13.03
2016-09-10T01:18:42.302Z,13.02
2016-09-10T01:19:42.772Z,13.01
2016-09-10T01:20:42.645Z,12.99
2016-09-10T01:21:42.434Z,13.03
2016-09-10T01:22:42.375Z,13.03
2016-09-10T01:23:42.401Z,12.99
2016-09-10T01:24:42.562Z,13.01
2016-09-10T01:25:42.491Z,12.91
2016-09-10T01:26:42.447Z,12.99
2016-09-10T01:27:42.544Z,12.93
2016-09-10T01:28:43.015Z,12.88
2016-09-10T01:29:42.826Z,12.86
2016-09-10T01:30:42.908Z,12.88
2016-09-10T01:31:42.857Z,13.03
2016-09-10T01:32:42.881Z,12.88
2016-09-10T01:33:42.628Z,12.9
2016-09-10T01:34:42.937Z,12.88
2016-09-10T01:35:42.832Z,12.95
2016-09-10T01:36:43.004Z,12.98
2016-09-10T01:37:42.994Z,12.93
2016-09-10T01:38:43.147Z,12.9
2016-09-10T01:39:42.717Z,12.9
2016-09-10T01:40:42.796Z,12.9
2016-09-10T01:41:43.085Z,12.87
2016-09-10T01:42:42.818Z,12.9
2016-09-10T01:43:42.880Z,12.95
2016-09-10T01:44:43.206Z,12.87
2016-09-10T01:45:42.896Z,12.88
2016-09-10T01:46:43.686Z,12.87
2016-09-10T01:47:42.896Z,12.76
2016-09-10T01:48:43.236Z,12.91
2016-09-10T01:49:43.336Z,12.88
2016-09-10T01:50:43.274Z,12.88
2016-09-10T01:51:43.301Z,12.87
2016-09-10T01:52:43.024Z,12.9
2016-09-10T01:53:43.017Z,12.93
2016-09-10T01:54:43.451Z,12.88
2016-09-10T01:55:43.363Z,12.91
2016-09-10T01:56:43.386Z,12.84
2016-09-10T01:57:43.105Z,12.8
2016-09-10T01:58:43.452Z,12.8
2016-09-10T01:59:43.354Z,12.72
2016-09-10T02:00:43.189Z,12.7
2016-09-10T02:01:43.497Z,12.73
2016-09-10T02:02:43.292Z,12.72
2016-09-10T02:03:43.261Z,12.72
2016-09-10T02:04:43.538Z,12.75
2016-09-10T02:05:43.257Z,12.75
2016-09-10T02:06:43.297Z,12.7
2016-09-10T02:07:43.289Z,12.69
2016-09-10T02:08:43.951Z,12.75
2016-09-10T02:09:43.602Z,12.75
2016-09-10T02:10:43.995Z,12.75
2016-09-10T02:11:43.766Z,12.55
2016-09-10T02:12:43.452Z,12.63
2016-09-10T02:13:43.465Z,12.65
2016-09-10T02:14:43.552Z,12.63
2016-09-10T02:15:43.544Z,12.63
2016-09-10T02:16:43.781Z,12.72
2016-09-10T02:17:43.817Z,12.63
2016-09-10T02:18:43.856Z,12.75
2016-09-10T02:19:43.583Z,12.73
2016-09-10T02:20:43.915Z,12.62
2016-09-10T02:21:43.980Z,12.61
2016-09-10T02:22:43.674Z,12.61
2016-09-10T02:23:43.637Z,12.62
2016-09-10T02:24:44.250Z,12.63
2016-09-10T02:25:43.994Z,12.66
2016-09-10T02:26:44.010Z,12.62
2016-09-10T02:27:43.716Z,12.63
2016-09-10T02:28:44.053Z,12.61
2016-09-10T02:29:44.056Z,12.58
2016-09-10T02:30:44.388Z,12.43
2016-09-10T02:31:44.157Z,12.51
2016-09-10T02:32:44.180Z,12.5
2016-09-10T02:33:43.833Z,12.53
2016-09-10T02:34:44.197Z,12.54
2016-09-10T02:35:44.255Z,12.47
2016-09-10T02:36:44.217Z,12.47
2016-09-10T02:37:43.919Z,12.51
2016-09-10T02:38:44.251Z,12.4
2016-09-10T02:39:44.294Z,12.47
2016-09-10T02:40:44.016Z,12.45
2016-09-10T02:41:44.325Z,12.44
2016-09-10T02:42:44.028Z,12.39
2016-09-10T02:43:44.342Z,12.4
2016-09-10T02:44:44.405Z,12.3
2016-09-10T02:45:44.398Z,12.39
2016-09-10T02:46:44.471Z,12.39
2016-09-10T02:47:44.470Z,12.3
2016-09-10T02:48:44.148Z,12.32
2016-09-10T02:49:44.456Z,12.26
2016-09-10T02:50:44.494Z,12.3
2016-09-10T02:51:44.219Z,12.2
2016-09-10T02:52:44.605Z,12.25
2016-09-10T02:53:44.557Z,12.23
2016-09-10T02:54:44.561Z,12.21
2016-09-10T02:55:44.439Z,12.18
2016-09-10T02:56:44.341Z,12.18
2016-09-10T02:57:44.454Z,12.15
2016-09-10T02:58:44.978Z,12.21
2016-09-10T02:59:44.403Z,12.21
2016-09-10T03:00:44.727Z,12.18
2016-09-10T03:01:44.729Z,12.18
2016-09-10T03:02:44.497Z,12.08
2016-09-10T03:03:44.467Z,12.17
2016-09-10T03:04:45.129Z,12.15
2016-09-10T03:05:44.849Z,12.11
2016-09-10T03:06:44.804Z,12.15
2016-09-10T03:07:44.554Z,12.15
2016-09-10T03:08:44.552Z,12.12
2016-09-10T03:09:44.895Z,12.17
2016-09-10T03:10:44.707Z,12.11
2016-09-10T03:11:44.604Z,12.18
2016-09-10T03:12:45.030Z,12.15
2016-09-10T03:13:44.644Z,12.08
2016-09-10T03:14:44.983Z,12.12
2016-09-10T03:15:45.027Z,12.15
2016-09-10T03:16:44.722Z,12.14
2016-09-10T03:17:44.719Z,12.12
2016-09-10T03:18:44.807Z,12.05
2016-09-10T03:19:45.072Z,12.07
2016-09-10T03:20:44.786Z,12.2
2016-09-10T03:21:45.150Z,12.02
2016-09-10T03:22:44.829Z,12.03
2016-09-10T03:23:45.184Z,12.07
2016-09-10T03:24:45.190Z,12.03
2016-09-10T03:25:45.356Z,12.08
2016-09-10T03:26:45.217Z,12.07
2016-09-10T03:27:45.086Z,12.05
2016-09-10T03:28:44.978Z,12.08
2016-09-10T03:29:45.012Z,12.1
2016-09-10T03:30:45.297Z,12.07
2016-09-10T03:31:45.012Z,12.07
2016-09-10T03:32:45.370Z,12.11
2016-09-10T03:33:45.389Z,12.17
2016-09-10T03:34:45.085Z,12.05
2016-09-10T03:35:45.084Z,12.05
2016-09-10T03:36:45.419Z,12.05
2016-09-10T03:37:45.440Z,11.96
2016-09-10T03:38:45.195Z,11.96
2016-09-10T03:39:45.504Z,11.99
2016-09-10T03:40:45.564Z,11.93
2016-09-10T03:41:45.557Z,11.97
2016-09-10T03:42:45.248Z,11.97
2016-09-10T03:43:45.280Z,11.99
2016-09-10T03:44:45.899Z,12.02
2016-09-10T03:45:45.627Z,12.03
2016-09-10T03:46:45.620Z,12.05
2016-09-10T03:47:45.968Z,12.02
2016-09-10T03:48:45.683Z,12.07
2016-09-10T03:49:45.419Z,12.02
2016-09-10T03:50:45.411Z,12
2016-09-10T03:51:45.811Z,12.11
2016-09-10T03:52:45.789Z,12.02
2016-09-10T03:53:45.452Z,12.07
2016-09-10T03:54:45.478Z,12.08
2016-09-10T03:55:45.496Z,12.08
2016-09-10T03:56:46.160Z,12.08
2016-09-10T03:57:45.544Z,12.05
2016-09-10T03:58:45.878Z,12.02
2016-09-10T03:59:45.895Z,12.03
2016-09-10T04:00:45.601Z,12.08
2016-09-10T04:01:45.920Z,12.05
2016-09-10T04:02:45.953Z,12.03
2016-09-10T04:03:46.326Z,12.05
2016-09-10T04:04:45.990Z,12
2016-09-10T04:05:45.701Z,11.96
2016-09-10T04:06:46.086Z,11.95
2016-09-10T04:07:45.767Z,12.02
2016-09-10T04:08:46.395Z,11.93
2016-09-10T04:09:46.104Z,11.85
2016-09-10T04:10:46.097Z,11.85
2016-09-10T04:11:46.118Z,11.91
2016-09-10T04:12:46.259Z,11.89
2016-09-10T04:13:46.165Z,11.97
2016-09-10T04:14:46.246Z,11.91
2016-09-10T04:15:46.535Z,11.93
2016-09-10T04:16:45.954Z,11.91
2016-09-10T04:17:46.084Z,11.99
2016-09-10T04:18:45.964Z,11.85
2016-09-10T04:19:45.980Z,11.88
2016-09-10T04:20:46.385Z,11.91
2016-09-10T04:21:46.012Z,11.81
2016-09-10T04:22:46.346Z,11.85
2016-09-10T04:23:46.579Z,11.88
2016-09-10T04:24:46.381Z,11.89
2016-09-10T04:25:46.431Z,11.83
2016-09-10T04:26:46.448Z,11.96
2016-09-10T04:27:46.766Z,11.91
2016-09-10T04:28:46.190Z,11.88
2016-09-10T04:29:46.189Z,11.86
2016-09-10T04:30:46.325Z,11.85
2016-09-10T04:31:46.555Z,11.77
2016-09-10T04:32:46.565Z,11.73
2016-09-10T04:33:46.587Z,11.67
2016-09-10T04:34:46.290Z,11.73
2016-09-10T04:35:46.412Z,11.71
2016-09-10T04:36:46.328Z,11.81
2016-09-10T04:37:46.699Z,11.68
2016-09-10T04:38:46.776Z,11.74
2016-09-10T04:39:46.394Z,11.73
2016-09-10T04:40:46.418Z,11.7
2016-09-10T04:41:46.787Z,11.62
2016-09-10T04:42:46.446Z,11.59
2016-09-10T04:43:46.528Z,11.7
2016-09-10T04:44:46.576Z,11.63
2016-09-10T04:45:46.548Z,11.6
2016-09-10T04:46:46.526Z,11.62
2016-09-10T04:47:46.563Z,11.63
2016-09-10T04:48:46.678Z,11.67
2016-09-10T04:49:46.944Z,11.74
2016-09-10T04:50:46.907Z,11.65
2016-09-10T04:51:46.919Z,11.62
2016-09-10T04:52:47.009Z,11.65
2016-09-10T04:53:47.083Z,11.63
2016-09-10T04:54:46.734Z,11.65
2016-09-10T04:55:46.759Z,11.68
2016-09-10T04:56:46.726Z,11.55
2016-09-10T04:57:47.093Z,11.59
2016-09-10T04:58:46.799Z,11.59
2016-09-10T04:59:47.283Z,11.62
2016-09-10T05:00:46.807Z,11.62
2016-09-10T05:01:46.964Z,11.55
2016-09-10T05:02:47.188Z,11.53
2016-09-10T05:03:47.478Z,11.58
2016-09-10T05:04:46.890Z,11.63
2016-09-10T05:05:46.888Z,11.67
2016-09-10T05:06:47.251Z,11.67
2016-09-10T05:07:47.255Z,11.65
2016-09-10T05:08:47.592Z,11.7
2016-09-10T05:09:47.389Z,11.76
2016-09-10T05:10:46.992Z,11.74
2016-09-10T05:11:47.336Z,11.73
2016-09-10T05:12:47.351Z,11.65
2016-09-10T05:13:47.103Z,11.59
2016-09-10T05:14:47.088Z,11.58
2016-09-10T05:15:47.739Z,11.55
2016-09-10T05:16:47.428Z,11.56
2016-09-10T05:17:47.137Z,11.58
2016-09-10T05:18:47.162Z,11.53
2016-09-10T05:19:47.186Z,11.55
2016-09-10T05:20:47.236Z,11.58
2016-09-10T05:21:47.229Z,11.52
2016-09-10T05:22:47.278Z,11.63
2016-09-10T05:23:47.589Z,11.65
2016-09-10T05:24:47.638Z,11.65
2016-09-10T05:25:47.674Z,11.78
2016-09-10T05:26:47.658Z,11.77
2016-09-10T05:27:47.794Z,11.81
2016-09-10T05:28:47.360Z,11.91
2016-09-10T05:29:47.469Z,11.93
2016-09-10T05:30:48.019Z,11.88
2016-09-10T05:31:47.481Z,12.07
2016-09-10T05:32:47.816Z,12.12
2016-09-10T05:33:47.617Z,12.11
2016-09-10T05:34:47.497Z,12.23
2016-09-10T05:35:47.527Z,12.3
2016-09-10T05:36:47.527Z,12.37
2016-09-10T05:37:47.551Z,12.4
2016-09-10T05:38:48.194Z,12.53
2016-09-10T05:39:47.596Z,12.61
2016-09-10T05:40:47.913Z,12.73
2016-09-10T05:41:47.615Z,12.75
2016-09-10T05:42:47.652Z,12.87
2016-09-10T05:43:47.810Z,12.98
2016-09-10T05:44:47.677Z,12.93
2016-09-10T05:45:48.001Z,12.98
2016-09-10T05:46:47.759Z,13.08
2016-09-10T05:47:48.048Z,13.27
2016-09-10T05:48:47.755Z,13.33
2016-09-10T05:49:47.776Z,13.71
2016-09-10T05:50:48.352Z,14.33
2016-09-10T05:51:48.157Z,15.05
2016-09-10T05:52:47.844Z,15.76
2016-09-10T05:53:48.166Z,16.36
2016-09-10T05:54:48.238Z,16.79
2016-09-10T05:55:48.224Z,17.35
2016-09-10T05:56:48.242Z,17.91
2016-09-10T05:57:47.949Z,18.45
2016-09-10T05:58:47.993Z,18.76
2016-09-10T05:59:48.012Z,19.12
2016-09-10T06:00:48.347Z,19.55
2016-09-10T06:01:48.278Z,19.64
2016-09-10T06:02:48.378Z,19.89
2016-09-10T06:03:48.097Z,20.18
2016-09-10T06:04:48.442Z,20.46
2016-09-10T06:05:48.130Z,20.78
2016-09-10T06:06:48.217Z,21.01
2016-09-10T06:07:48.515Z,21.48
2016-09-10T06:08:48.516Z,21.72
2016-09-10T06:09:48.568Z,22.03
2016-09-10T06:10:48.858Z,22.3
2016-09-10T06:11:48.775Z,22.47
2016-09-10T06:12:49.098Z,22.78
2016-09-10T06:13:48.784Z,23.16
2016-09-10T06:14:48.947Z,23.58
2016-09-10T06:15:48.572Z,23.82
2016-09-10T06:16:48.499Z,24.16
2016-09-10T06:17:48.527Z,24.38
2016-09-10T06:18:48.525Z,24.63
2016-09-10T06:19:48.889Z,24.63
2016-09-10T06:20:48.506Z,24.59
2016-09-10T06:21:48.931Z,24.68
2016-09-10T06:22:48.581Z,24.77
2016-09-10T06:23:48.806Z,24.61
2016-09-10T06:24:48.926Z,24.46
2016-09-10T06:25:48.675Z,24.34
2016-09-10T06:26:48.995Z,24.29
2016-09-10T06:27:49.311Z,24.32
2016-09-10T06:28:49.170Z,24.28
2016-09-10T06:29:48.779Z,24.37
2016-09-10T06:30:48.825Z,24.61
2016-09-10T06:31:48.836Z,24.44
2016-09-10T06:32:48.989Z,24.69
2016-09-10T06:33:48.863Z,24.81
2016-09-10T06:34:49.177Z,24.78
2016-09-10T06:35:49.217Z,25.07
2016-09-10T06:36:48.989Z,25.14
2016-09-10T06:37:49.040Z,25.15
2016-09-10T06:38:48.977Z,25.04
2016-09-10T06:39:49.322Z,24.85
2016-09-10T06:40:49.363Z,25.03
2016-09-10T06:41:49.679Z,25.01
2016-09-10T06:42:49.462Z,24.84
2016-09-10T06:43:49.443Z,24.86
2016-09-10T06:44:49.485Z,25.16
2016-09-10T06:45:49.570Z,25.26
2016-09-10T06:46:49.203Z,25.66
2016-09-10T06:47:49.226Z,26.01
2016-09-10T06:48:49.579Z,26.52
2016-09-10T06:49:49.287Z,27.03
2016-09-10T06:50:49.620Z,27.3
2016-09-10T06:51:49.665Z,27.76
2016-09-10T06:52:49.416Z,28.03
2016-09-10T06:53:49.403Z,28.3
2016-09-10T06:54:49.471Z,28.68
2016-09-10T06:55:49.785Z,28.84
2016-09-10T06:56:49.530Z,29.21
2016-09-10T06:57:49.543Z,29.21
2016-09-10T06:58:49.854Z,29.39
2016-09-10T06:59:49.892Z,29.42
2016-09-10T07:00:49.619Z,29.57
2016-09-10T07:01:49.730Z,29.58
2016-09-10T07:02:50.009Z,29.65
2016-09-10T07:03:49.696Z,29.68
2016-09-10T07:04:49.768Z,29.92
2016-09-10T07:05:49.894Z,30.16
2016-09-10T07:06:49.866Z,30.29
2016-09-10T07:07:49.846Z,30.51
2016-09-10T07:08:49.885Z,30.71
2016-09-10T07:09:49.911Z,30.93
2016-09-10T07:10:50.226Z,30.93
2016-09-10T07:11:50.281Z,30.99
2016-09-10T07:12:50.062Z,30.98
2016-09-10T07:13:50.361Z,31.3
2016-09-10T07:14:50.016Z,31.33
2016-09-10T07:15:50.373Z,31.35
2016-09-10T07:16:50.097Z,31.04
2016-09-10T07:17:50.117Z,30.95
2016-09-10T07:18:50.163Z,30.83
2016-09-10T07:19:50.371Z,31.07
2016-09-10T07:20:50.192Z,31.28
2016-09-10T07:21:50.339Z,31.47
2016-09-10T07:22:50.276Z,31.5
2016-09-10T07:23:50.605Z,31.37
2016-09-10T07:24:50.611Z,31.28
2016-09-10T07:25:50.360Z,31.28
2016-09-10T07:26:50.803Z,31.18
2016-09-10T07:27:50.396Z,31.15
2016-09-10T07:28:50.816Z,30.99
2016-09-10T07:29:50.773Z,30.91
2016-09-10T07:30:50.568Z,30.88
2016-09-10T07:31:50.599Z,30.86
2016-09-10T07:32:50.931Z,30.49
2016-09-10T07:33:50.622Z,30.17
2016-09-10T07:34:50.648Z,30.08
2016-09-10T07:35:50.969Z,30.26
2016-09-10T07:36:50.703Z,30.14
2016-09-10T07:37:50.721Z,29.77
2016-09-10T07:38:51.076Z,29.09
2016-09-10T07:39:51.084Z,28.27
2016-09-10T07:40:50.803Z,27.3
2016-09-10T07:41:51.545Z,26.37
2016-09-10T07:42:51.150Z,25.44
2016-09-10T07:43:51.218Z,24.5
2016-09-10T07:44:51.275Z,23.86
2016-09-10T07:45:50.935Z,23.32
2016-09-10T07:46:50.974Z,22.73
2016-09-10T07:47:51.297Z,22.25
2016-09-10T07:48:51.052Z,21.96
2016-09-10T07:49:51.102Z,21.44
2016-09-10T07:50:51.217Z,21.15
2016-09-10T07:51:51.110Z,21.04
2016-09-10T07:52:51.128Z,20.89
2016-09-10T07:53:51.148Z,20.85
2016-09-10T07:54:51.229Z,20.86
2016-09-10T07:55:51.546Z,20.77
2016-09-10T07:56:51.545Z,20.75
2016-09-10T07:57:51.572Z,20.73
2016-09-10T07:58:51.611Z,20.59
2016-09-10T07:59:51.330Z,20.58
2016-09-10T08:00:51.359Z,20.6
2016-09-10T08:01:51.692Z,20.63
2016-09-10T08:02:51.706Z,20.58
2016-09-10T08:03:51.739Z,20.48
2016-09-10T08:04:51.447Z,20.52
2016-09-10T08:05:51.787Z,20.52
2016-09-10T08:06:51.492Z,20.5
2016-09-10T08:07:51.509Z,20.59
2016-09-10T08:08:51.545Z,20.56
2016-09-10T08:09:51.570Z,20.74
2016-09-10T08:10:51.611Z,20.75
2016-09-10T08:11:51.671Z,20.83
2016-09-10T08:12:51.706Z,20.9
2016-09-10T08:13:52.014Z,20.86
2016-09-10T08:14:51.830Z,20.83
2016-09-10T08:15:52.294Z,20.93
2016-09-10T08:16:51.771Z,20.89
2016-09-10T08:17:52.428Z,20.92
2016-09-10T08:18:51.807Z,20.88
2016-09-10T08:19:51.825Z,21.01
2016-09-10T08:20:51.918Z,21.01
2016-09-10T08:21:52.204Z,21.07
2016-09-10T08:22:52.341Z,21.13
2016-09-10T08:23:51.962Z,21.11
2016-09-10T08:24:52.616Z,21.32
2016-09-10T08:25:52.304Z,21.33
2016-09-10T08:26:52.328Z,21.35
2016-09-10T08:27:52.055Z,21.41
2016-09-10T08:28:52.100Z,21.48
2016-09-10T08:29:52.533Z,21.45
2016-09-10T08:30:52.467Z,21.6
2016-09-10T08:31:52.156Z,21.58
2016-09-10T08:32:52.208Z,21.56
2016-09-10T08:33:52.225Z,21.68
2016-09-10T08:34:52.547Z,21.77
2016-09-10T08:35:52.906Z,21.84
2016-09-10T08:36:52.594Z,21.89
2016-09-10T08:37:52.722Z,21.97
2016-09-10T08:38:52.328Z,22.03
2016-09-10T08:39:52.449Z,22.07
2016-09-10T08:40:52.701Z,22.06
2016-09-10T08:41:52.441Z,22.18
2016-09-10T08:42:52.807Z,22.23
2016-09-10T08:43:52.630Z,22.31
2016-09-10T08:44:52.492Z,22.3
2016-09-10T08:45:52.544Z,22.28
2016-09-10T08:46:52.552Z,22.25
2016-09-10T08:47:52.565Z,22.31
2016-09-10T08:48:52.649Z,22.41
2016-09-10T08:49:52.891Z,22.49
2016-09-10T08:50:52.681Z,22.4
2016-09-10T08:51:53.006Z,22.43
2016-09-10T08:52:53.083Z,22.28
2016-09-10T08:53:53.074Z,22.31
2016-09-10T08:54:52.775Z,22.28
2016-09-10T08:55:53.102Z,22.36
2016-09-10T08:56:53.207Z,22.4
2016-09-10T08:57:52.858Z,22.37
2016-09-10T08:58:52.947Z,22.38
2016-09-10T08:59:53.188Z,22.38
2016-09-10T09:00:53.381Z,22.4
2016-09-10T09:01:53.050Z,22.55
2016-09-10T09:02:53.007Z,22.56
2016-09-10T09:03:53.282Z,22.68
2016-09-10T09:04:53.013Z,22.78
2016-09-10T09:05:53.077Z,22.84
2016-09-10T09:06:53.088Z,22.84
2016-09-10T09:07:53.097Z,22.89
2016-09-10T09:08:53.436Z,22.96
2016-09-10T09:09:53.148Z,23.07
2016-09-10T09:10:53.479Z,23.17
2016-09-10T09:11:53.206Z,23.18
2016-09-10T09:12:53.191Z,23.26
2016-09-10T09:13:53.272Z,23.32
2016-09-10T09:14:53.316Z,23.33
2016-09-10T09:15:53.286Z,23.47
2016-09-10T09:16:53.748Z,23.47
2016-09-10T09:17:53.358Z,23.44
2016-09-10T09:18:53.744Z,23.52
2016-09-10T09:19:53.728Z,23.44
2016-09-10T09:20:53.750Z,23.47
2016-09-10T09:21:53.908Z,23.48
2016-09-10T09:22:53.608Z,23.59
2016-09-10T09:23:53.865Z,23.58
2016-09-10T09:24:53.853Z,23.63
2016-09-10T09:25:53.856Z,23.79
2016-09-10T09:26:53.967Z,23.74
2016-09-10T09:27:54.255Z,23.84
2016-09-10T09:28:53.643Z,23.82
2016-09-10T09:29:54.020Z,23.94
2016-09-10T09:30:53.689Z,23.89
2016-09-10T09:31:54.025Z,24.03
2016-09-10T09:32:54.087Z,24.09
2016-09-10T09:33:54.074Z,24.18
2016-09-10T09:34:53.796Z,24.13
2016-09-10T09:35:54.139Z,24.19
2016-09-10T09:36:54.514Z,24.13
2016-09-10T09:37:54.215Z,24.13
2016-09-10T09:38:54.233Z,24.16
2016-09-10T09:39:54.241Z,24.24
2016-09-10T09:40:53.951Z,24.21
2016-09-10T09:41:54.308Z,24.18
2016-09-10T09:42:54.063Z,24.36
2016-09-10T09:43:54.655Z,24.41
2016-09-10T09:44:54.414Z,24.46
2016-09-10T09:45:55.270Z,24.5
2016-09-10T09:46:54.521Z,24.5
2016-09-10T09:47:54.459Z,24.47
2016-09-10T09:48:54.190Z,24.61
2016-09-10T09:49:54.212Z,24.65
2016-09-10T09:50:54.556Z,24.61
2016-09-10T09:51:54.661Z,24.68
2016-09-10T09:52:54.655Z,24.74
2016-09-10T09:53:54.367Z,24.68
2016-09-10T09:54:54.382Z,24.71
2016-09-10T09:55:54.444Z,24.63
2016-09-10T09:56:54.735Z,24.59
2016-09-10T09:57:54.500Z,24.68
2016-09-10T09:58:54.466Z,24.59
2016-09-10T09:59:54.540Z,24.65
2016-09-10T10:00:54.831Z,24.66
2016-09-10T10:01:54.613Z,24.69
2016-09-10T10:02:55.504Z,24.77
2016-09-10T10:03:55.327Z,24.79
2016-09-10T10:04:55.449Z,24.88
2016-09-10T10:05:55.332Z,24.94
2016-09-10T10:06:55.461Z,24.89
2016-09-10T10:07:55.026Z,25.01
2016-09-10T10:08:54.726Z,25.09
2016-09-10T10:09:54.877Z,25.14
2016-09-10T10:10:54.787Z,25.15
2016-09-10T10:11:55.433Z,25.18
2016-09-10T10:12:55.362Z,25.24
2016-09-10T10:13:55.374Z,25.37
2016-09-10T10:14:55.365Z,25.48
2016-09-10T10:15:55.390Z,25.52
2016-09-10T10:16:55.366Z,25.46
2016-09-10T10:17:54.980Z,25.54
2016-09-10T10:18:55.404Z,25.51
2016-09-10T10:19:55.391Z,25.33
2016-09-10T10:20:55.422Z,25.29
2016-09-10T10:21:55.071Z,25.25
2016-09-10T10:22:55.157Z,25.26
2016-09-10T10:23:55.155Z,25.36
2016-09-10T10:24:55.538Z,25.37
2016-09-10T10:25:55.556Z,25.31
2016-09-10T10:26:55.536Z,25.3
2016-09-10T10:27:55.559Z,25.29
2016-09-10T10:28:55.598Z,25.25
2016-09-10T10:29:55.635Z,25.25
2016-09-10T10:30:55.640Z,25.15
2016-09-10T10:31:55.712Z,25.22
2016-09-10T10:32:55.503Z,25.25
2016-09-10T10:33:55.516Z,25.15
2016-09-10T10:34:55.798Z,25.12
2016-09-10T10:35:55.480Z,25.22
2016-09-10T10:36:55.516Z,25.15
2016-09-10T10:37:55.559Z,25.25
2016-09-10T10:38:55.574Z,25.29
2016-09-10T10:39:55.897Z,25.19
2016-09-10T10:40:55.949Z,25.22
2016-09-10T10:41:55.956Z,25.29
2016-09-10T10:42:55.695Z,25.29
2016-09-10T10:43:55.735Z,25.33
2016-09-10T10:44:55.736Z,25.37
2016-09-10T10:45:55.777Z,25.36
2016-09-10T10:46:55.781Z,25.36
2016-09-10T10:47:55.816Z,25.34
2016-09-10T10:48:55.910Z,25.29
2016-09-10T10:49:55.862Z,25.24
2016-09-10T10:50:56.036Z,25.18
2016-09-10T10:51:56.246Z,25.26
2016-09-10T10:52:56.298Z,25.19
2016-09-10T10:53:56.416Z,25.21
2016-09-10T10:54:56.323Z,25.24
2016-09-10T10:55:56.339Z,25.33
2016-09-10T10:56:56.050Z,25.4
2016-09-10T10:57:56.406Z,25.54
2016-09-10T10:58:56.120Z,25.56
2016-09-10T10:59:56.194Z,25.56
2016-09-10T11:00:56.207Z,25.67
2016-09-10T11:01:56.204Z,25.62
2016-09-10T11:02:56.633Z,25.63
2016-09-10T11:03:56.272Z,25.62
2016-09-10T11:04:56.681Z,25.67
2016-09-10T11:05:56.452Z,25.66
2016-09-10T11:06:56.710Z,25.66
2016-09-10T11:07:56.424Z,25.61
2016-09-10T11:08:56.400Z,25.67
2016-09-10T11:09:56.496Z,25.73
2016-09-10T11:10:56.458Z,25.8
2016-09-10T11:11:56.481Z,25.88
2016-09-10T11:12:56.519Z,26.07
2016-09-10T11:13:56.526Z,26.16
2016-09-10T11:14:56.884Z,26.22
2016-09-10T11:15:56.637Z,26.23
2016-09-10T11:16:56.638Z,26.16
2016-09-10T11:17:56.657Z,26.06
2016-09-10T11:18:56.790Z,26.16
2016-09-10T11:19:56.727Z,26.15
2016-09-10T11:20:57.363Z,26.06
2016-09-10T11:21:56.784Z,26.07
2016-09-10T11:22:56.837Z,26.26
2016-09-10T11:23:56.806Z,26.31
2016-09-10T11:24:56.850Z,26.41
2016-09-10T11:25:56.877Z,26.46
2016-09-10T11:26:56.904Z,26.63
2016-09-10T11:27:57.086Z,26.55
2016-09-10T11:28:56.964Z,26.71
2016-09-10T11:29:57.606Z,26.73
2016-09-10T11:30:57.016Z,26.79
2016-09-10T11:31:57.099Z,26.93
2016-09-10T11:32:57.066Z,26.96
2016-09-10T11:33:57.103Z,27.01
2016-09-10T11:34:57.117Z,27.07
2016-09-10T11:35:57.240Z,27.07
2016-09-10T11:36:57.223Z,27.04
2016-09-10T11:37:57.866Z,27.03
2016-09-10T11:38:57.574Z,27.1
2016-09-10T11:39:57.576Z,27.05
2016-09-10T11:40:57.617Z,27.19
2016-09-10T11:41:57.727Z,27.29
2016-09-10T11:42:57.993Z,27.33
2016-09-10T11:43:57.466Z,27.3
2016-09-10T11:44:57.726Z,27.34
2016-09-10T11:45:57.457Z,27.37
2016-09-10T11:46:57.516Z,27.37
2016-09-10T11:47:57.499Z,27.41
2016-09-10T11:48:57.540Z,27.4
2016-09-10T11:49:57.856Z,27.34
2016-09-10T11:50:57.579Z,27.34
2016-09-10T11:51:58.042Z,27.41
2016-09-10T11:52:57.622Z,27.4
2016-09-10T11:53:57.979Z,27.37
2016-09-10T11:54:58.015Z,27.43
2016-09-10T11:55:57.753Z,27.37
2016-09-10T11:56:58.115Z,27.37
2016-09-10T11:57:58.077Z,27.33
2016-09-10T11:58:57.791Z,27.48
2016-09-10T11:59:58.125Z,27.43
2016-09-10T12:00:57.848Z,27.48
2016-09-10T12:01:58.188Z,27.6
2016-09-10T12:02:58.408Z,27.71
2016-09-10T12:03:58.078Z,27.78
2016-09-10T12:04:58.434Z,27.93
2016-09-10T12:05:58.473Z,27.98
2016-09-10T12:06:58.146Z,28
2016-09-10T12:07:58.151Z,28.04
2016-09-10T12:08:58.396Z,28.1
2016-09-10T12:09:58.416Z,28.04
2016-09-10T12:10:58.601Z,28.09
2016-09-10T12:11:58.175Z,28.13
2016-09-10T12:12:58.533Z,28.22
2016-09-10T12:13:58.247Z,28.23
2016-09-10T12:14:58.562Z,28.35
2016-09-10T12:15:58.598Z,28.41
2016-09-10T12:16:58.325Z,28.52
2016-09-10T12:17:58.356Z,28.68
2016-09-10T12:18:58.389Z,28.78
2016-09-10T12:19:59.039Z,29
2016-09-10T12:20:58.959Z,29.15
2016-09-10T12:21:58.455Z,29.31
2016-09-10T12:22:58.547Z,29.42
2016-09-10T12:23:58.839Z,29.42
2016-09-10T12:24:58.868Z,29.46
2016-09-10T12:25:58.904Z,29.65
2016-09-10T12:26:58.701Z,29.67
2016-09-10T12:27:58.689Z,29.79
2016-09-10T12:28:58.963Z,29.86
2016-09-10T12:29:59.103Z,29.83
2016-09-10T12:30:58.715Z,29.87
2016-09-10T12:31:59.291Z,29.84
2016-09-10T12:32:58.787Z,29.84
2016-09-10T12:33:59.106Z,29.79
2016-09-10T12:34:59.143Z,29.64
2016-09-10T12:35:58.868Z,29.68
2016-09-10T12:36:58.904Z,29.47
2016-09-10T12:37:58.978Z,29.34
2016-09-10T12:38:58.946Z,29.22
2016-09-10T12:39:59.042Z,29.18
2016-09-10T12:40:59.037Z,29.25
2016-09-10T12:41:59.037Z,29.28
2016-09-10T12:42:59.086Z,29.39
2016-09-10T12:43:59.148Z,29.5
2016-09-10T12:44:59.151Z,29.53
2016-09-10T12:45:59.469Z,29.65
2016-09-10T12:46:59.189Z,29.61
2016-09-10T12:47:59.231Z,29.47
2016-09-10T12:48:59.263Z,29.49
2016-09-10T12:49:59.324Z,29.4
2016-09-10T12:50:59.318Z,29.42
2016-09-10T12:51:59.645Z,29.39
2016-09-10T12:52:59.364Z,29.46
2016-09-10T12:53:59.704Z,29.44
2016-09-10T12:54:59.430Z,29.58